Terminal Aerodrome Forecast
Issued by NWS Wilmington, NC

Home | Current Version | Previous Version | Text Only | Print | Product List | Glossary On
Versions: 1 2 3 4 5 6 7 8 9 10 11 12
206
FTUS42 KILM 242320
TAFFLO
TAF
KFLO 242320Z 2500/2524 17006KT P6SM FEW045
     FM250200 16006KT P6SM FEW250
     FM251700 19008KT P6SM BKN035
     FM252300 15007KT P6SM BKN035=

USA.gov is the U.S. government's official web portal to all federal, state and local government web resources and services.